Webcam Flughafen St.Gallen-Altenrhein

Live-Bilder und Zeitraffer LSZR / ACH.

 

Live aus Altenrhein
LIVE
LSZR 161820Z AUTO VRB03KT 4700 BR BKN006 M04/M04 Q1023
Zeitraffer heute
2021-01-16 00:14:12
LSZR 152250Z AUTO 24001KT 5000 OVC011 M04/M04 Q1026